createdAt,value
2022-11-05T00:01:59.839Z,69.45
2022-11-05T00:04:45.085Z,70.49
2022-11-05T00:07:34.383Z,70.26
2022-11-05T00:10:05.241Z,69.90
2022-11-05T00:12:50.546Z,68.92
2022-11-05T00:15:35.766Z,69.50
2022-11-05T00:18:02.371Z,70.07
2022-11-05T00:20:28.912Z,69.80
2022-11-05T00:23:21.083Z,70.05
2022-11-05T00:26:06.767Z,69.82
2022-11-05T00:28:34.924Z,69.02
2022-11-05T00:31:09.638Z,68.96
2022-11-05T00:33:37.227Z,69.75
2022-11-05T00:36:05.021Z,68.53
2022-11-05T00:38:32.275Z,68.74
2022-11-05T00:40:59.188Z,68.70
2022-11-05T00:43:44.810Z,69.23
2022-11-05T00:46:12.122Z,69.08
2022-11-05T00:48:57.099Z,68.22
2022-11-05T00:51:23.798Z,68.39
2022-11-05T00:53:50.397Z,67.57
2022-11-05T00:56:17.009Z,67.78
2022-11-05T00:58:43.579Z,68.01
2022-11-05T01:01:11.268Z,68.29
2022-11-05T01:03:39.572Z,68.63
2022-11-05T01:06:17.145Z,68.42
2022-11-05T01:08:45.422Z,68.27
2022-11-05T01:11:33.841Z,68.42
2022-11-05T01:14:05.146Z,68.21
2022-11-05T01:16:32.298Z,69.01
2022-11-05T01:18:59.276Z,68.44
2022-11-05T01:21:25.944Z,68.39
2022-11-05T01:23:52.948Z,68.12
2022-11-05T01:26:19.720Z,67.75
2022-11-05T01:28:53.695Z,68.14
2022-11-05T01:31:21.667Z,68.21
2022-11-05T01:33:48.605Z,68.34
2022-11-05T01:36:15.353Z,68.61
2022-11-05T01:38:42.298Z,68.53
2022-11-05T01:41:09.032Z,68.44
2022-11-05T01:43:46.039Z,68.66
2022-11-05T01:46:13.081Z,69.31
2022-11-05T01:48:40.208Z,69.14
2022-11-05T01:51:11.935Z,68.77
2022-11-05T01:53:50.483Z,68.49
2022-11-05T01:56:23.858Z,68.25
2022-11-05T01:58:53.087Z,68.97
2022-11-05T02:01:20.088Z,69.52
2022-11-05T02:03:50.335Z,69.44
2022-11-05T02:06:17.903Z,69.80
2022-11-05T02:09:07.379Z,69.28
2022-11-05T02:11:34.517Z,69.59
2022-11-05T02:14:01.592Z,67.72
2022-11-05T02:16:43.349Z,67.85
2022-11-05T02:19:40.188Z,68.89
2022-11-05T02:22:41.983Z,69.36
2022-11-05T02:25:36.316Z,69.33
2022-11-05T02:28:40.591Z,69.70
2022-11-05T02:31:15.215Z,70.30
2022-11-05T02:33:48.289Z,69.94
2022-11-05T02:36:30.532Z,69.85
2022-11-05T02:39:24.958Z,69.70
2022-11-05T02:42:11.380Z,68.84
2022-11-05T02:44:37.941Z,69.77
2022-11-05T02:47:19.265Z,69.15
2022-11-05T02:50:23.045Z,70.03
2022-11-05T02:53:00.624Z,70.21
2022-11-05T02:55:36.295Z,69.58
2022-11-05T02:58:04.213Z,68.87
2022-11-05T03:01:01.951Z,67.99
2022-11-05T03:03:36.678Z,67.18
2022-11-05T03:06:09.178Z,66.50
2022-11-05T03:08:56.607Z,66.63
2022-11-05T03:11:28.620Z,66.53
2022-11-05T03:14:07.523Z,68.04
2022-11-05T03:16:49.593Z,68.27
2022-11-05T03:19:53.516Z,68.34
2022-11-05T03:22:34.943Z,68.22
2022-11-05T03:25:12.288Z,68.12
2022-11-05T03:27:43.037Z,68.60
2022-11-05T03:30:12.411Z,68.86
2022-11-05T03:32:44.172Z,69.16
2022-11-05T03:35:25.535Z,69.04
2022-11-05T03:37:58.274Z,69.33
2022-11-05T03:40:26.196Z,68.91
2022-11-05T03:42:57.897Z,68.78
2022-11-05T03:45:43.846Z,70.07
2022-11-05T03:48:13.030Z,69.97
2022-11-05T03:50:52.143Z,69.18
2022-11-05T03:53:25.167Z,69.08
2022-11-05T03:56:07.996Z,69.65
2022-11-05T03:58:36.006Z,70.31
2022-11-05T04:01:04.144Z,70.74
2022-11-05T04:03:36.458Z,70.41
2022-11-05T04:06:23.577Z,69.45
2022-11-05T04:09:16.462Z,70.00
2022-11-05T04:12:01.896Z,70.79
2022-11-05T04:14:28.720Z,70.21
2022-11-05T04:17:07.042Z,70.01
2022-11-05T04:19:57.100Z,69.18
2022-11-05T04:22:44.449Z,70.34
2022-11-05T04:25:12.439Z,70.39
2022-11-05T04:27:39.258Z,70.05
2022-11-05T04:30:18.831Z,69.87
2022-11-05T04:33:09.307Z,70.02
2022-11-05T04:35:37.722Z,70.91
2022-11-05T04:38:06.516Z,70.48
2022-11-05T04:40:33.588Z,70.19
2022-11-05T04:43:00.761Z,70.43
2022-11-05T04:45:29.701Z,70.26
2022-11-05T04:47:56.408Z,71.29
2022-11-05T04:50:23.646Z,71.12
2022-11-05T04:52:50.312Z,70.46
2022-11-05T04:55:16.976Z,71.78
2022-11-05T04:57:43.756Z,71.73
2022-11-05T05:00:11.327Z,72.33
2022-11-05T05:02:38.236Z,72.18
2022-11-05T05:05:05.256Z,71.52
2022-11-05T05:07:33.575Z,71.30
2022-11-05T05:10:05.124Z,70.49
2022-11-05T05:12:32.769Z,71.05
2022-11-05T05:14:59.393Z,70.91
2022-11-05T05:17:26.052Z,71.23
2022-11-05T05:20:11.078Z,71.08
2022-11-05T05:22:37.706Z,70.84
2022-11-05T05:25:04.943Z,71.71
2022-11-05T05:27:32.000Z,71.48
2022-11-05T05:29:59.610Z,71.51
2022-11-05T05:32:27.036Z,70.95
2022-11-05T05:34:53.897Z,71.08
2022-11-05T05:37:20.598Z,70.61
2022-11-05T05:39:48.047Z,69.32
2022-11-05T05:42:14.928Z,70.12
2022-11-05T05:44:41.625Z,69.70
2022-11-05T05:47:08.357Z,70.82
2022-11-05T05:49:34.892Z,71.04
2022-11-05T05:52:01.872Z,70.67
2022-11-05T05:54:32.701Z,70.65
2022-11-05T05:57:00.932Z,71.11
2022-11-05T05:59:27.587Z,71.12
2022-11-05T06:01:54.275Z,71.13
2022-11-05T06:04:20.940Z,70.97
2022-11-05T06:06:48.229Z,71.35
2022-11-05T06:09:15.286Z,70.95
2022-11-05T06:11:42.198Z,70.85
2022-11-05T06:14:13.003Z,71.10
2022-11-05T06:16:40.520Z,71.69
2022-11-05T06:19:08.175Z,71.35
2022-11-05T06:21:35.585Z,71.78
2022-11-05T06:24:03.201Z,70.71
2022-11-05T06:26:30.576Z,70.63
2022-11-05T06:28:57.212Z,71.33
2022-11-05T06:31:23.915Z,71.22
2022-11-05T06:33:50.869Z,72.14
2022-11-05T06:36:19.105Z,72.33
2022-11-05T06:38:45.774Z,72.27
2022-11-05T06:41:12.344Z,71.19
2022-11-05T06:43:39.164Z,71.39
2022-11-05T06:46:06.206Z,71.49
2022-11-05T06:48:33.185Z,72.19
2022-11-05T06:51:00.001Z,72.84
2022-11-05T06:53:27.264Z,73.21
2022-11-05T06:55:53.910Z,73.69
2022-11-05T06:58:20.683Z,73.62
2022-11-05T07:00:47.455Z,73.19
2022-11-05T07:03:15.110Z,73.22
2022-11-05T07:05:47.992Z,73.28
2022-11-05T07:08:15.619Z,74.01
2022-11-05T07:10:42.255Z,73.84
2022-11-05T07:13:09.360Z,73.58
2022-11-05T07:15:36.833Z,74.02
2022-11-05T07:18:04.052Z,73.91
2022-11-05T07:20:33.770Z,73.91
2022-11-05T07:23:13.028Z,74.01
2022-11-05T07:25:42.268Z,75.11
2022-11-05T07:28:10.338Z,75.62
2022-11-05T07:30:37.944Z,74.71
2022-11-05T07:33:04.892Z,73.73
2022-11-05T07:35:31.847Z,74.39
2022-11-05T07:37:58.826Z,74.62
2022-11-05T07:40:28.096Z,74.66
2022-11-05T07:43:00.041Z,74.86
2022-11-05T07:45:28.793Z,74.66
2022-11-05T07:47:56.616Z,74.81
2022-11-05T07:50:26.936Z,75.07
2022-11-05T07:52:54.980Z,74.57
2022-11-05T07:55:21.548Z,74.55
2022-11-05T07:57:50.548Z,72.08
2022-11-05T08:00:22.481Z,70.16
2022-11-05T08:03:08.515Z,68.90
2022-11-05T08:05:40.454Z,68.99
2022-11-05T08:08:08.723Z,71.44
2022-11-05T08:10:36.470Z,71.79
2022-11-05T08:13:04.250Z,72.46
2022-11-05T08:15:31.266Z,71.28
2022-11-05T08:18:06.463Z,70.79
2022-11-05T08:20:33.986Z,70.17
2022-11-05T08:23:01.095Z,70.11
2022-11-05T08:25:28.110Z,70.86
2022-11-05T08:27:59.507Z,69.88
2022-11-05T08:30:26.718Z,71.13
2022-11-05T08:33:00.500Z,70.99
2022-11-05T08:35:28.092Z,71.36
2022-11-05T08:38:03.402Z,70.88
2022-11-05T08:40:33.100Z,69.73
2022-11-05T08:43:01.299Z,68.07
2022-11-05T08:45:28.430Z,68.43
2022-11-05T08:48:02.165Z,68.72
2022-11-05T08:50:29.352Z,65.11
2022-11-05T08:52:55.976Z,67.36
2022-11-05T08:55:23.148Z,66.82
2022-11-05T08:57:55.372Z,63.70
2022-11-05T09:00:22.032Z,61.37
2022-11-05T09:02:48.578Z,60.57
2022-11-05T09:05:15.371Z,59.74
2022-11-05T09:07:42.493Z,60.88
2022-11-05T09:10:09.519Z,62.78
2022-11-05T09:12:36.116Z,61.27
2022-11-05T09:15:02.755Z,60.95
2022-11-05T09:17:29.413Z,58.04
2022-11-05T09:19:56.303Z,56.71
2022-11-05T09:22:22.967Z,55.81
2022-11-05T09:24:49.568Z,59.96
2022-11-05T09:27:16.201Z,56.30
2022-11-05T09:29:42.879Z,53.14
2022-11-05T09:32:09.838Z,50.54
2022-11-05T09:34:36.580Z,46.06
2022-11-05T09:37:03.914Z,45.95
2022-11-05T09:39:30.668Z,44.55
2022-11-05T09:42:03.887Z,42.36
2022-11-05T09:44:54.196Z,42.90
2022-11-05T09:47:25.959Z,42.91
2022-11-05T09:49:54.648Z,42.96
2022-11-05T09:52:25.835Z,40.80
2022-11-05T09:54:54.195Z,39.89
2022-11-05T09:57:27.562Z,40.08
2022-11-05T09:59:58.127Z,40.37
2022-11-05T10:02:29.813Z,40.22
2022-11-05T10:05:09.987Z,38.72
2022-11-05T10:07:48.089Z,38.71
2022-11-05T10:10:31.861Z,38.63
2022-11-05T10:13:06.418Z,38.89
2022-11-05T10:15:46.854Z,38.98
2022-11-05T10:18:21.674Z,37.88
2022-11-05T10:20:48.668Z,38.14
2022-11-05T10:23:17.960Z,37.77
2022-11-05T10:25:56.925Z,38.57
2022-11-05T10:28:26.311Z,38.69
2022-11-05T10:31:01.532Z,37.77
2022-11-05T10:33:35.718Z,38.25
2022-11-05T10:36:09.866Z,37.30
2022-11-05T10:38:36.588Z,37.28
2022-11-05T10:41:03.655Z,37.08
2022-11-05T10:43:36.135Z,36.54
2022-11-05T10:46:35.612Z,35.81
2022-11-05T10:49:27.279Z,37.55
2022-11-05T10:52:00.060Z,35.40
2022-11-05T10:54:33.895Z,34.86
2022-11-05T10:57:00.506Z,34.98
2022-11-05T10:59:29.783Z,35.47
2022-11-05T11:02:26.980Z,35.41
2022-11-05T11:04:56.587Z,35.46
2022-11-05T11:07:25.682Z,35.28
2022-11-05T11:09:52.959Z,34.34
2022-11-05T11:12:28.999Z,35.68
2022-11-05T11:15:21.969Z,35.33
2022-11-05T11:17:48.688Z,35.63
2022-11-05T11:20:24.366Z,35.16
2022-11-05T11:23:07.463Z,35.23
2022-11-05T11:26:00.646Z,34.73
2022-11-05T11:28:39.368Z,34.96
2022-11-05T11:31:11.185Z,35.73
2022-11-05T11:33:39.991Z,34.98
2022-11-05T11:36:09.131Z,35.74
2022-11-05T11:38:37.108Z,34.93
2022-11-05T11:41:23.882Z,34.55
2022-11-05T11:43:55.840Z,34.83
2022-11-05T11:46:22.725Z,32.88
2022-11-05T11:48:49.645Z,34.33
2022-11-05T11:51:20.802Z,33.87
2022-11-05T11:53:49.466Z,34.76
2022-11-05T11:56:21.654Z,34.40
2022-11-05T11:58:49.369Z,34.35
2022-11-05T12:01:28.227Z,34.02
2022-11-05T12:04:06.076Z,33.73
2022-11-05T12:06:44.271Z,34.48
2022-11-05T12:09:31.887Z,33.51
2022-11-05T12:12:14.298Z,33.19
2022-11-05T12:14:53.458Z,33.27
2022-11-05T12:17:54.704Z,33.68
2022-11-05T12:21:06.787Z,34.58
2022-11-05T12:24:10.547Z,32.63
2022-11-05T12:27:01.760Z,33.81
2022-11-05T12:29:35.946Z,34.18
2022-11-05T12:32:17.414Z,34.02
2022-11-05T12:35:23.052Z,33.65
2022-11-05T12:37:58.462Z,32.92
2022-11-05T12:40:34.171Z,33.17
2022-11-05T12:43:37.803Z,33.89
2022-11-05T12:46:19.590Z,34.23
2022-11-05T12:48:55.388Z,33.44
2022-11-05T12:51:36.882Z,33.02
2022-11-05T12:54:37.411Z,33.70
2022-11-05T12:57:05.700Z,33.22
2022-11-05T12:59:46.069Z,32.04
2022-11-05T13:02:37.639Z,32.12
2022-11-05T13:05:06.170Z,31.47
2022-11-05T13:07:48.158Z,32.72
2022-11-05T13:10:32.798Z,33.74
2022-11-05T13:13:18.826Z,32.54
2022-11-05T13:16:04.894Z,32.04
2022-11-05T13:18:50.090Z,32.48
2022-11-05T13:21:19.966Z,32.80
2022-11-05T13:23:52.427Z,32.79
2022-11-05T13:26:43.397Z,33.10
2022-11-05T13:29:20.263Z,32.78
2022-11-05T13:31:57.781Z,32.36
2022-11-05T13:34:24.579Z,32.70
2022-11-05T13:37:23.415Z,33.10
2022-11-05T13:39:55.773Z,33.16
2022-11-05T13:42:43.819Z,33.51
2022-11-05T13:45:19.330Z,33.75
2022-11-05T13:48:04.499Z,31.49
2022-11-05T13:50:59.091Z,33.16
2022-11-05T13:53:49.331Z,32.65
2022-11-05T13:56:45.032Z,31.93
2022-11-05T13:59:37.716Z,33.18
2022-11-05T14:02:24.945Z,32.30
2022-11-05T14:05:00.752Z,32.67
2022-11-05T14:07:32.312Z,33.98
2022-11-05T14:10:05.589Z,32.51
2022-11-05T14:12:36.501Z,32.74
2022-11-05T14:15:09.555Z,33.04
2022-11-05T14:18:07.262Z,32.72
2022-11-05T14:20:33.924Z,32.61
2022-11-05T14:23:19.219Z,34.10
2022-11-05T14:25:45.885Z,33.53
2022-11-05T14:28:40.575Z,34.36
2022-11-05T14:31:13.277Z,34.49
2022-11-05T14:33:40.064Z,34.14
2022-11-05T14:36:22.138Z,34.88
2022-11-05T14:38:51.452Z,34.41
2022-11-05T14:41:19.997Z,33.64
2022-11-05T14:43:57.785Z,34.30
2022-11-05T14:46:25.281Z,34.48
2022-11-05T14:49:08.064Z,34.77
2022-11-05T14:51:40.228Z,33.71
2022-11-05T14:54:17.587Z,33.06
2022-11-05T14:56:56.307Z,32.64
2022-11-05T14:59:31.498Z,32.75
2022-11-05T15:02:01.666Z,32.81
2022-11-05T15:04:30.074Z,34.05
2022-11-05T15:07:02.825Z,33.88
2022-11-05T15:09:29.447Z,33.41
2022-11-05T15:11:55.957Z,34.30
2022-11-05T15:14:49.144Z,34.54
2022-11-05T15:17:29.700Z,33.95
2022-11-05T15:20:18.856Z,33.54
2022-11-05T15:22:51.780Z,33.65
2022-11-05T15:25:25.616Z,32.72
2022-11-05T15:28:17.591Z,33.71
2022-11-05T15:30:58.614Z,32.57
2022-11-05T15:33:25.773Z,32.95
2022-11-05T15:35:52.785Z,32.26
2022-11-05T15:38:29.490Z,33.59
2022-11-05T15:41:01.269Z,32.34
2022-11-05T15:43:28.549Z,33.14
2022-11-05T15:46:03.387Z,32.19
2022-11-05T15:48:30.780Z,32.49
2022-11-05T15:50:57.968Z,33.08
2022-11-05T15:53:51.489Z,33.00
2022-11-05T15:56:36.883Z,33.52
2022-11-05T15:59:16.958Z,33.56
2022-11-05T16:02:06.111Z,32.41
2022-11-05T16:04:34.849Z,32.96
2022-11-05T16:07:09.848Z,32.85
2022-11-05T16:09:40.400Z,33.20
2022-11-05T16:12:23.975Z,33.80
2022-11-05T16:15:01.516Z,32.41
2022-11-05T16:17:31.944Z,32.41
2022-11-05T16:19:58.902Z,33.24
2022-11-05T16:22:26.085Z,34.10
2022-11-05T16:24:52.889Z,35.48
2022-11-05T16:27:22.119Z,35.87
2022-11-05T16:29:57.460Z,36.23
2022-11-05T16:32:31.781Z,35.77
2022-11-05T16:35:00.131Z,35.98
2022-11-05T16:37:27.774Z,34.49
2022-11-05T16:39:55.703Z,35.70
2022-11-05T16:42:22.374Z,35.79
2022-11-05T16:44:54.855Z,35.24
2022-11-05T16:47:22.527Z,34.20
2022-11-05T16:49:49.390Z,34.47
2022-11-05T16:52:16.558Z,34.33
2022-11-05T16:54:43.294Z,34.58
2022-11-05T16:57:30.578Z,35.55
2022-11-05T16:59:59.146Z,36.28
2022-11-05T17:02:26.626Z,36.02
2022-11-05T17:04:53.426Z,35.83
2022-11-05T17:07:20.076Z,33.93
2022-11-05T17:09:46.892Z,35.04
2022-11-05T17:12:14.391Z,34.58
2022-11-05T17:14:42.280Z,35.19
2022-11-05T17:17:11.708Z,33.31
2022-11-05T17:19:42.407Z,34.53
2022-11-05T17:22:09.490Z,33.61
2022-11-05T17:24:36.111Z,34.00
2022-11-05T17:27:03.260Z,33.74
2022-11-05T17:29:29.823Z,32.85
2022-11-05T17:31:56.503Z,33.80
2022-11-05T17:34:23.275Z,33.74
2022-11-05T17:36:49.932Z,32.72
2022-11-05T17:39:16.543Z,32.72
2022-11-05T17:41:43.539Z,32.59
2022-11-05T17:44:10.649Z,33.20
2022-11-05T17:46:37.421Z,33.37
2022-11-05T17:49:04.079Z,33.40
2022-11-05T17:51:32.711Z,32.48
2022-11-05T17:53:59.309Z,32.45
2022-11-05T17:56:33.820Z,32.63
2022-11-05T17:59:03.293Z,32.91
2022-11-05T18:01:32.705Z,33.24
2022-11-05T18:04:03.825Z,34.20
2022-11-05T18:06:34.955Z,33.55
2022-11-05T18:09:01.842Z,33.15
2022-11-05T18:11:28.646Z,32.84
2022-11-05T18:13:55.245Z,33.06
2022-11-05T18:16:21.931Z,33.48
2022-11-05T18:18:49.419Z,32.76
2022-11-05T18:21:16.567Z,33.11
2022-11-05T18:23:43.212Z,33.82
2022-11-05T18:26:14.465Z,33.62
2022-11-05T18:28:41.964Z,33.30
2022-11-05T18:31:18.529Z,33.90
2022-11-05T18:33:45.449Z,33.28
2022-11-05T18:36:27.550Z,32.83
2022-11-05T18:38:54.668Z,34.08
2022-11-05T18:41:22.027Z,34.60
2022-11-05T18:43:49.148Z,34.63
2022-11-05T18:46:43.119Z,33.62
2022-11-05T18:49:03.291Z,33.04
2022-11-05T18:51:30.524Z,32.85
2022-11-05T18:53:57.240Z,33.55
2022-11-05T18:56:24.180Z,33.29
2022-11-05T18:59:14.770Z,33.65
2022-11-05T19:01:40.599Z,32.77
2022-11-05T19:04:07.427Z,33.00
2022-11-05T19:06:35.356Z,33.73
2022-11-05T19:09:01.968Z,34.09
2022-11-05T19:11:28.885Z,33.53
2022-11-05T19:13:55.483Z,33.11
2022-11-05T19:16:25.049Z,33.18
2022-11-05T19:18:52.266Z,32.79
2022-11-05T19:21:24.219Z,33.03
2022-11-05T19:23:51.999Z,33.27
2022-11-05T19:26:27.221Z,33.95
2022-11-05T19:28:56.971Z,33.73
2022-11-05T19:31:23.637Z,32.69
2022-11-05T19:33:52.007Z,32.72
2022-11-05T19:36:20.983Z,32.78
2022-11-05T19:38:52.267Z,34.51
2022-11-05T19:41:19.327Z,34.26
2022-11-05T19:43:46.401Z,33.27
2022-11-05T19:46:18.526Z,33.27
2022-11-05T19:48:46.074Z,34.02
2022-11-05T19:51:22.322Z,34.45
2022-11-05T19:53:51.576Z,33.78
2022-11-05T19:56:26.791Z,34.01
2022-11-05T19:58:54.394Z,33.78
2022-11-05T20:01:26.910Z,39.64
2022-11-05T20:03:55.162Z,40.62
2022-11-05T20:06:26.374Z,39.30
2022-11-05T20:09:19.881Z,37.36
2022-11-05T20:11:40.128Z,37.61
2022-11-05T20:14:08.049Z,39.48
2022-11-05T20:16:40.197Z,35.08
2022-11-05T20:19:12.876Z,34.41
2022-11-05T20:21:39.990Z,35.18
2022-11-05T20:24:07.878Z,34.74
2022-11-05T20:26:34.809Z,34.26
2022-11-05T20:29:01.536Z,33.84
2022-11-05T20:31:28.562Z,34.12
2022-11-05T20:33:55.318Z,33.41
2022-11-05T20:36:24.411Z,34.02
2022-11-05T20:38:55.310Z,33.17
2022-11-05T20:41:23.011Z,33.53
2022-11-05T20:43:50.045Z,32.80
2022-11-05T20:46:18.755Z,33.03
2022-11-05T20:48:46.012Z,33.44
2022-11-05T20:51:15.854Z,34.16
2022-11-05T20:53:43.069Z,33.51
2022-11-05T20:56:20.948Z,32.44
2022-11-05T20:58:47.617Z,33.34
2022-11-05T21:01:18.428Z,32.66
2022-11-05T21:03:46.804Z,33.87
2022-11-05T21:06:14.230Z,34.41
2022-11-05T21:08:41.474Z,32.60
2022-11-05T21:11:08.707Z,32.91
2022-11-05T21:13:36.049Z,33.36
2022-11-05T21:16:05.463Z,34.02
2022-11-05T21:18:34.000Z,34.02
2022-11-05T21:21:07.489Z,33.89
2022-11-05T21:23:34.311Z,33.65
2022-11-05T21:26:08.956Z,33.60
2022-11-05T21:28:38.364Z,33.70
2022-11-05T21:31:07.237Z,33.35
2022-11-05T21:33:34.074Z,33.86
2022-11-05T21:36:07.565Z,34.26
2022-11-05T21:38:34.731Z,32.80
2022-11-05T21:41:02.931Z,34.09
2022-11-05T21:43:29.776Z,33.23
2022-11-05T21:46:00.909Z,34.46
2022-11-05T21:48:27.605Z,33.24
2022-11-05T21:51:12.487Z,34.28
2022-11-05T21:53:58.476Z,33.96
2022-11-05T21:56:44.375Z,35.14
2022-11-05T21:59:32.470Z,36.45
2022-11-05T22:02:02.641Z,40.09
2022-11-05T22:04:31.263Z,43.77
2022-11-05T22:06:58.148Z,44.59
2022-11-05T22:09:25.686Z,46.45
2022-11-05T22:11:52.345Z,46.92
2022-11-05T22:14:19.187Z,46.45
2022-11-05T22:16:46.059Z,45.95
2022-11-05T22:19:13.371Z,46.49
2022-11-05T22:21:40.213Z,46.36
2022-11-05T22:24:07.489Z,46.85
2022-11-05T22:26:35.501Z,47.94
2022-11-05T22:29:02.188Z,47.29
2022-11-05T22:31:34.753Z,47.45
2022-11-05T22:34:03.417Z,48.54
2022-11-05T22:36:30.211Z,48.46
2022-11-05T22:38:57.120Z,48.72
2022-11-05T22:41:23.764Z,49.25
2022-11-05T22:43:50.783Z,49.06
2022-11-05T22:46:21.510Z,48.68
2022-11-05T22:48:49.274Z,49.46
2022-11-05T22:51:19.475Z,49.33
2022-11-05T22:53:46.199Z,49.78
2022-11-05T22:56:15.172Z,50.22
2022-11-05T22:58:42.337Z,50.19
2022-11-05T23:01:13.945Z,50.68
2022-11-05T23:03:42.965Z,50.85
2022-11-05T23:06:42.304Z,51.58
2022-11-05T23:09:42.074Z,51.83
2022-11-05T23:12:19.910Z,51.84
2022-11-05T23:14:46.681Z,51.42
2022-11-05T23:17:32.434Z,51.55
2022-11-05T23:20:17.688Z,52.24
2022-11-05T23:23:02.932Z,53.07
2022-11-05T23:25:29.607Z,53.54
2022-11-05T23:27:56.264Z,53.34
2022-11-05T23:30:25.929Z,54.34
2022-11-05T23:32:55.573Z,55.31
2022-11-05T23:35:42.279Z,54.50
2022-11-05T23:38:27.839Z,54.97
2022-11-05T23:41:13.208Z,55.82
2022-11-05T23:43:58.586Z,56.58
2022-11-05T23:46:43.858Z,55.27
2022-11-05T23:49:10.474Z,54.96
2022-11-05T23:51:37.037Z,54.64
2022-11-05T23:54:03.759Z,54.76
2022-11-05T23:56:31.585Z,54.59
2022-11-05T23:58:58.641Z,53.82
